createdAt,value
2018-07-13T00:01:44.967Z,10.20
2018-07-13T00:04:11.896Z,10.53
2018-07-13T00:06:38.824Z,9.40
2018-07-13T00:09:05.785Z,9.60
2018-07-13T00:11:32.665Z,10.30
2018-07-13T00:13:59.673Z,9.60
2018-07-13T00:16:26.528Z,9.30
2018-07-13T00:18:53.685Z,10.37
2018-07-13T00:21:20.556Z,10.27
2018-07-13T00:23:47.469Z,10.10
2018-07-13T00:26:14.327Z,9.23
2018-07-13T00:28:41.329Z,10.00
2018-07-13T00:31:08.249Z,9.77
2018-07-13T00:33:35.170Z,11.27
2018-07-13T00:36:02.032Z,10.57
2018-07-13T00:38:28.951Z,11.70
2018-07-13T00:40:55.803Z,11.33
2018-07-13T00:43:22.711Z,11.63
2018-07-13T00:45:49.564Z,10.60
2018-07-13T00:48:16.473Z,9.43
2018-07-13T00:50:43.327Z,10.50
2018-07-13T00:53:10.236Z,9.40
2018-07-13T00:55:37.093Z,10.00
2018-07-13T00:58:04.021Z,9.43
2018-07-13T01:00:30.933Z,9.63
2018-07-13T01:02:57.906Z,9.77
2018-07-13T01:05:24.762Z,10.17
2018-07-13T01:07:51.669Z,10.60
2018-07-13T01:10:18.541Z,10.70
2018-07-13T01:12:45.445Z,11.03
2018-07-13T01:15:12.306Z,11.40
2018-07-13T01:17:39.217Z,12.10
2018-07-13T01:20:06.256Z,11.80
2018-07-13T01:22:33.161Z,11.77
2018-07-13T01:25:00.011Z,11.43
2018-07-13T01:27:26.992Z,12.70
2018-07-13T01:29:53.892Z,12.43
2018-07-13T01:32:20.844Z,13.07
2018-07-13T01:34:47.686Z,12.60
2018-07-13T01:37:14.549Z,11.33
2018-07-13T01:39:41.453Z,14.10
2018-07-13T01:42:08.297Z,11.73
2018-07-13T01:44:35.198Z,13.60
2018-07-13T01:47:02.046Z,12.63
2018-07-13T01:49:28.941Z,11.10
2018-07-13T01:51:55.798Z,12.60
2018-07-13T01:54:22.703Z,11.47
2018-07-13T01:56:49.549Z,11.30
2018-07-13T01:59:16.468Z,13.50
2018-07-13T02:01:43.319Z,11.90
2018-07-13T02:04:10.216Z,11.87
2018-07-13T02:06:37.068Z,12.77
2018-07-13T02:09:04.069Z,14.13
2018-07-13T02:11:30.908Z,11.10
2018-07-13T02:13:57.872Z,10.70
2018-07-13T02:16:24.703Z,11.40
2018-07-13T02:18:51.609Z,11.43
2018-07-13T02:21:18.453Z,11.90
2018-07-13T02:23:45.365Z,10.80
2018-07-13T02:26:12.219Z,9.90
2018-07-13T02:28:39.189Z,10.93
2018-07-13T02:31:06.043Z,11.30
2018-07-13T02:33:32.970Z,10.80
2018-07-13T02:35:59.836Z,10.53
2018-07-13T02:38:26.754Z,11.90
2018-07-13T02:40:53.609Z,11.00
2018-07-13T02:43:20.509Z,11.13
2018-07-13T02:45:47.353Z,10.87
2018-07-13T02:48:14.250Z,11.13
2018-07-13T02:50:41.101Z,12.57
2018-07-13T02:53:07.937Z,10.67
2018-07-13T02:55:34.885Z,12.30
2018-07-13T02:58:01.741Z,12.67
2018-07-13T03:00:28.666Z,11.70
2018-07-13T03:02:55.506Z,11.93
2018-07-13T03:05:22.418Z,12.93
2018-07-13T03:07:49.497Z,13.10
2018-07-13T03:10:16.405Z,13.67
2018-07-13T03:12:43.252Z,12.40
2018-07-13T03:15:10.149Z,12.40
2018-07-13T03:17:36.990Z,13.80
2018-07-13T03:20:03.937Z,12.10
2018-07-13T03:22:30.905Z,13.90
2018-07-13T03:24:57.812Z,14.33
2018-07-13T03:27:24.682Z,13.40
2018-07-13T03:29:51.669Z,12.47
2018-07-13T03:32:18.511Z,10.37
2018-07-13T03:34:45.408Z,12.10
2018-07-13T03:37:12.274Z,13.73
2018-07-13T03:39:39.251Z,12.83
2018-07-13T03:42:06.118Z,13.30
2018-07-13T03:44:33.019Z,14.07
2018-07-13T03:46:59.870Z,13.67
2018-07-13T03:49:26.787Z,14.23
2018-07-13T03:51:53.644Z,12.43
2018-07-13T03:54:20.573Z,14.03
2018-07-13T03:56:47.455Z,13.87
2018-07-13T03:59:14.380Z,14.50
2018-07-13T04:01:41.248Z,13.93
2018-07-13T04:04:08.165Z,15.10
2018-07-13T04:06:35.133Z,14.13
2018-07-13T04:09:01.984Z,14.43
2018-07-13T04:11:28.909Z,13.27
2018-07-13T04:13:55.757Z,12.70
2018-07-13T04:16:22.717Z,13.27
2018-07-13T04:18:49.591Z,13.23
2018-07-13T04:21:16.540Z,13.60
2018-07-13T04:23:43.423Z,13.20
2018-07-13T04:26:13.164Z,14.63
2018-07-13T04:28:54.807Z,14.50
2018-07-13T04:31:22.660Z,16.10
2018-07-13T04:33:49.523Z,17.43
2018-07-13T04:36:16.423Z,18.43
2018-07-13T04:38:43.360Z,18.40
2018-07-13T04:41:10.373Z,20.13
2018-07-13T04:43:37.213Z,23.63
2018-07-13T04:46:04.212Z,23.93
2018-07-13T04:48:31.188Z,25.33
2018-07-13T04:50:58.258Z,23.10
2018-07-13T04:53:25.212Z,23.70
2018-07-13T04:55:52.220Z,19.47
2018-07-13T04:58:19.160Z,15.87
2018-07-13T05:00:46.164Z,15.70
2018-07-13T05:03:13.121Z,16.20
2018-07-13T05:05:40.192Z,14.87
2018-07-13T05:08:08.326Z,15.80
2018-07-13T05:10:35.260Z,16.67
2018-07-13T05:13:02.211Z,15.43
2018-07-13T05:15:29.168Z,18.47
2018-07-13T05:17:56.053Z,22.10
2018-07-13T05:20:23.055Z,19.40
2018-07-13T05:22:50.008Z,19.20
2018-07-13T05:25:17.018Z,20.27
2018-07-13T05:27:43.985Z,18.10
2018-07-13T05:30:11.024Z,19.40
2018-07-13T05:32:37.973Z,18.23
2018-07-13T05:35:04.977Z,19.30
2018-07-13T05:37:31.955Z,18.93
2018-07-13T05:39:58.918Z,19.90
2018-07-13T05:42:25.933Z,18.90
2018-07-13T05:44:52.889Z,18.30
2018-07-13T05:47:19.916Z,18.00
2018-07-13T05:49:46.967Z,16.53
2018-07-13T05:52:13.967Z,16.23
2018-07-13T05:54:40.996Z,16.33
2018-07-13T05:57:08.045Z,16.43
2018-07-13T05:59:35.030Z,17.93
2018-07-13T06:02:02.009Z,16.33
2018-07-13T06:04:29.045Z,16.43
2018-07-13T06:06:56.057Z,15.70
2018-07-13T06:09:22.994Z,15.03
2018-07-13T06:11:49.995Z,15.70
2018-07-13T06:14:16.869Z,14.70
2018-07-13T06:16:43.798Z,15.67
2018-07-13T06:19:10.741Z,17.57
2018-07-13T06:21:37.669Z,16.23
2018-07-13T06:24:04.624Z,15.20
2018-07-13T06:26:31.524Z,14.70
2018-07-13T06:28:58.417Z,14.20
2018-07-13T06:31:25.445Z,13.47
2018-07-13T06:33:52.296Z,13.37
2018-07-13T06:36:19.347Z,14.30
2018-07-13T06:38:46.258Z,14.80
2018-07-13T06:41:13.236Z,14.17
2018-07-13T06:43:40.176Z,14.43
2018-07-13T06:46:07.161Z,13.40
2018-07-13T06:48:34.071Z,12.20
2018-07-13T06:51:01.077Z,12.77
2018-07-13T06:53:28.005Z,12.70
2018-07-13T06:55:54.866Z,11.03
2018-07-13T06:58:44.482Z,12.07
2018-07-13T07:01:11.457Z,12.70
2018-07-13T07:03:38.498Z,11.37
2018-07-13T07:06:05.485Z,11.00
2018-07-13T07:08:33.276Z,12.57
2018-07-13T07:11:00.426Z,12.90
2018-07-13T07:13:27.441Z,11.90
2018-07-13T07:15:54.366Z,11.70
2018-07-13T07:18:21.317Z,12.60
2018-07-13T07:20:48.207Z,11.40
2018-07-13T07:23:15.135Z,13.37
2018-07-13T07:25:42.054Z,10.63
2018-07-13T07:28:08.981Z,11.40
2018-07-13T07:30:35.973Z,11.17
2018-07-13T07:33:02.928Z,10.93
2018-07-13T07:35:29.806Z,11.07
2018-07-13T07:37:56.765Z,11.43
2018-07-13T07:40:23.644Z,11.70
2018-07-13T07:42:50.649Z,10.10
2018-07-13T07:45:17.590Z,10.30
2018-07-13T07:47:44.617Z,9.97
2018-07-13T07:50:11.555Z,11.23
2018-07-13T07:52:38.482Z,10.80
2018-07-13T07:55:05.378Z,10.90
2018-07-13T07:57:32.367Z,9.80
2018-07-13T07:59:59.238Z,9.10
2018-07-13T08:02:41.131Z,10.50
2018-07-13T08:05:08.949Z,9.53
2018-07-13T08:07:46.553Z,9.33
2018-07-13T08:10:13.445Z,10.60
2018-07-13T08:12:40.411Z,9.70
2018-07-13T08:15:11.921Z,9.00
2018-07-13T08:17:40.846Z,10.20
2018-07-13T08:20:07.766Z,8.77
2018-07-13T08:22:42.334Z,8.90
2018-07-13T08:25:20.039Z,9.00
2018-07-13T08:27:48.056Z,8.20
2018-07-13T08:33:11.712Z,7.10
2018-07-13T08:38:37.754Z,8.07
2018-07-13T08:41:18.538Z,8.57
2018-07-13T08:43:46.494Z,8.37
2018-07-13T08:46:13.429Z,9.43
2018-07-13T08:48:40.370Z,8.30
2018-07-13T08:51:07.317Z,8.70
2018-07-13T08:53:34.303Z,8.13
2018-07-13T08:56:08.380Z,7.00
2018-07-13T08:58:37.385Z,7.60
2018-07-13T09:01:14.601Z,9.53
2018-07-13T09:03:49.217Z,7.90
2018-07-13T09:06:30.131Z,7.87
2018-07-13T09:11:55.089Z,7.63
2018-07-13T09:14:35.252Z,8.13
2018-07-13T09:17:02.787Z,6.87
2018-07-13T09:19:44.577Z,7.10
2018-07-13T09:22:26.259Z,6.43
2018-07-13T09:25:07.094Z,6.30
2018-07-13T09:27:48.689Z,7.20
2018-07-13T09:30:24.170Z,7.17
2018-07-13T09:33:00.351Z,7.83
2018-07-13T09:35:27.609Z,6.33
2018-07-13T09:37:54.709Z,6.90
2018-07-13T09:40:21.602Z,6.30
2018-07-13T09:42:48.559Z,6.93
2018-07-13T09:45:15.448Z,5.53
2018-07-13T09:47:42.370Z,5.30
2018-07-13T09:50:09.238Z,5.20
2018-07-13T09:52:36.161Z,5.53
2018-07-13T09:55:03.166Z,5.70
2018-07-13T09:57:30.085Z,10.77
2018-07-13T09:59:56.995Z,26.63
2018-07-13T10:02:23.941Z,37.63
2018-07-13T10:04:51.020Z,15.07
2018-07-13T10:07:17.936Z,6.60
2018-07-13T10:09:44.925Z,6.63
2018-07-13T10:12:11.881Z,6.97
2018-07-13T10:14:38.899Z,6.40
2018-07-13T10:17:05.872Z,8.10
2018-07-13T10:19:32.893Z,6.43
2018-07-13T10:21:59.834Z,6.40
2018-07-13T10:24:28.398Z,6.10
2018-07-13T10:26:57.022Z,6.50
2018-07-13T10:29:24.184Z,6.40
2018-07-13T10:31:51.143Z,5.83
2018-07-13T10:34:20.558Z,6.70
2018-07-13T10:36:50.445Z,6.60
2018-07-13T10:39:19.564Z,6.83
2018-07-13T10:41:48.674Z,7.23
2018-07-13T10:44:15.812Z,7.13
2018-07-13T10:46:44.529Z,6.40
2018-07-13T10:49:13.217Z,5.43
2018-07-13T10:51:40.235Z,5.63
2018-07-13T10:54:13.373Z,5.80
2018-07-13T10:56:49.298Z,6.80
2018-07-13T10:59:25.107Z,5.40
2018-07-13T11:01:59.680Z,5.90
2018-07-13T11:04:30.352Z,6.50
2018-07-13T11:07:04.642Z,6.57
2018-07-13T11:09:31.564Z,6.00
2018-07-13T11:11:58.477Z,5.30
2018-07-13T11:14:25.412Z,6.20
2018-07-13T11:16:52.268Z,6.60
2018-07-13T11:19:30.635Z,5.93
2018-07-13T11:22:05.735Z,5.13
2018-07-13T11:24:42.284Z,5.10
2018-07-13T11:27:23.267Z,5.20
2018-07-13T11:30:02.368Z,5.27
2018-07-13T11:32:30.977Z,6.13
2018-07-13T11:34:57.902Z,5.17
2018-07-13T11:37:26.849Z,5.23
2018-07-13T11:40:03.456Z,4.60
2018-07-13T11:45:26.361Z,5.60
2018-07-13T11:48:07.313Z,5.57
2018-07-13T11:53:27.401Z,4.40
2018-07-13T11:56:03.542Z,3.70
2018-07-13T11:58:45.522Z,4.33
2018-07-13T12:01:26.914Z,4.53
2018-07-13T12:04:04.408Z,3.97
2018-07-13T12:06:44.702Z,3.87
2018-07-13T12:09:27.137Z,3.97
2018-07-13T12:12:06.126Z,3.83
2018-07-13T12:14:46.561Z,4.27
2018-07-13T12:20:02.403Z,5.90
2018-07-13T12:22:39.555Z,4.47
2018-07-13T12:25:18.287Z,4.50
2018-07-13T12:27:49.289Z,4.10
2018-07-13T12:30:16.542Z,3.93
2018-07-13T12:32:45.354Z,3.83
2018-07-13T12:35:12.309Z,4.30
2018-07-13T12:37:39.184Z,3.97
2018-07-13T12:40:06.997Z,4.50
2018-07-13T12:42:34.573Z,3.87
2018-07-13T12:45:01.634Z,4.37
2018-07-13T12:47:28.598Z,4.13
2018-07-13T12:50:02.286Z,3.43
2018-07-13T12:52:34.788Z,4.20
2018-07-13T12:55:12.802Z,4.07
2018-07-13T12:57:42.153Z,4.70
2018-07-13T13:00:09.246Z,4.80
2018-07-13T13:02:36.881Z,4.47
2018-07-13T13:05:04.677Z,4.93
2018-07-13T13:07:32.160Z,4.50
2018-07-13T13:10:00.339Z,4.77
2018-07-13T13:12:27.258Z,4.23
2018-07-13T13:14:57.369Z,5.10
2018-07-13T13:17:24.273Z,5.03
2018-07-13T13:19:51.137Z,4.80
2018-07-13T13:22:18.084Z,4.30
2018-07-13T13:24:49.548Z,4.80
2018-07-13T13:27:21.576Z,5.10
2018-07-13T13:29:48.424Z,5.60
2018-07-13T13:32:19.797Z,5.40
2018-07-13T13:34:46.848Z,4.80
2018-07-13T13:37:13.750Z,4.70
2018-07-13T13:39:40.672Z,4.70
2018-07-13T13:42:15.567Z,5.10
2018-07-13T13:44:44.818Z,5.70
2018-07-13T13:47:11.939Z,5.00
2018-07-13T13:49:38.838Z,4.70
2018-07-13T13:52:05.953Z,4.90
2018-07-13T13:54:32.808Z,5.63
2018-07-13T13:56:59.756Z,5.63
2018-07-13T13:59:26.601Z,5.17
2018-07-13T14:01:53.657Z,5.50
2018-07-13T14:04:20.646Z,5.13
2018-07-13T14:07:03.334Z,4.73
2018-07-13T14:09:44.704Z,4.70
2018-07-13T14:15:07.191Z,5.50
2018-07-13T14:17:49.002Z,4.77
2018-07-13T14:20:30.437Z,4.37
2018-07-13T14:22:58.197Z,4.87
2018-07-13T14:25:25.055Z,5.30
2018-07-13T14:27:51.989Z,5.30
2018-07-13T14:30:18.849Z,4.93
2018-07-13T14:33:00.447Z,5.50
2018-07-13T14:35:28.057Z,4.47
2018-07-13T14:37:54.965Z,5.10
2018-07-13T14:40:21.861Z,5.70
2018-07-13T14:42:48.780Z,5.27
2018-07-13T14:45:19.161Z,5.90
2018-07-13T14:47:53.794Z,4.60
2018-07-13T14:50:35.845Z,5.20
2018-07-13T14:55:48.540Z,5.23
2018-07-13T14:58:23.050Z,5.37
2018-07-13T15:01:02.167Z,5.43
2018-07-13T15:06:22.248Z,5.23
2018-07-13T15:08:50.142Z,5.73
2018-07-13T15:11:16.993Z,5.50
2018-07-13T15:13:43.936Z,5.37
2018-07-13T15:16:11.447Z,5.33
2018-07-13T15:18:38.457Z,5.60
2018-07-13T15:21:05.801Z,5.00
2018-07-13T15:23:32.737Z,5.27
2018-07-13T15:26:10.263Z,5.70
2018-07-13T15:28:38.142Z,5.20
2018-07-13T15:31:06.017Z,5.27
2018-07-13T15:33:32.949Z,4.97
2018-07-13T15:35:59.807Z,4.50
2018-07-13T15:38:27.199Z,4.50
2018-07-13T15:40:54.096Z,5.20
2018-07-13T15:43:21.062Z,5.27
2018-07-13T15:45:50.025Z,4.80
2018-07-13T15:48:24.993Z,5.60
2018-07-13T15:50:58.125Z,4.50
2018-07-13T15:53:29.879Z,4.57
2018-07-13T15:55:57.227Z,5.43
2018-07-13T15:58:24.187Z,5.53
2018-07-13T16:00:51.085Z,5.27
2018-07-13T16:03:18.004Z,3.77
2018-07-13T16:05:44.983Z,4.77
2018-07-13T16:08:18.955Z,4.97
2018-07-13T16:10:46.893Z,4.60
2018-07-13T16:13:19.234Z,4.60
2018-07-13T16:15:47.506Z,4.50
2018-07-13T16:18:14.444Z,11.50
2018-07-13T16:20:44.130Z,6.33
2018-07-13T16:23:15.251Z,7.40
2018-07-13T16:25:44.354Z,8.40
2018-07-13T16:28:11.280Z,6.50
2018-07-13T16:30:43.308Z,6.97
2018-07-13T16:33:14.099Z,7.27
2018-07-13T16:35:40.964Z,5.87
2018-07-13T16:38:09.057Z,8.67
2018-07-13T16:40:39.236Z,10.23
2018-07-13T16:43:06.169Z,18.50
2018-07-13T16:45:36.210Z,10.40
2018-07-13T16:48:03.400Z,5.00
2018-07-13T16:50:30.350Z,7.70
2018-07-13T16:52:57.180Z,7.60
2018-07-13T16:55:24.101Z,5.20
2018-07-13T16:57:50.952Z,5.63
2018-07-13T17:00:17.879Z,5.00
2018-07-13T17:02:50.749Z,5.10
2018-07-13T17:05:17.720Z,4.80
2018-07-13T17:07:45.306Z,4.90
2018-07-13T17:10:12.235Z,5.00
2018-07-13T17:12:40.543Z,4.30
2018-07-13T17:15:10.056Z,4.50
2018-07-13T17:17:36.985Z,4.10
2018-07-13T17:20:04.085Z,4.50
2018-07-13T17:22:30.967Z,4.53
2018-07-13T17:24:58.105Z,4.53
2018-07-13T17:27:24.949Z,4.30
2018-07-13T17:29:52.064Z,5.17
2018-07-13T17:32:27.835Z,4.73
2018-07-13T17:34:54.848Z,5.13
2018-07-13T17:37:25.466Z,5.30
2018-07-13T17:39:52.616Z,4.37
2018-07-13T17:42:26.153Z,5.27
2018-07-13T17:44:57.034Z,4.60
2018-07-13T17:47:23.949Z,5.97
2018-07-13T17:50:00.179Z,4.40
2018-07-13T17:52:31.484Z,4.90
2018-07-13T17:54:59.568Z,4.40
2018-07-13T17:57:26.472Z,4.17
2018-07-13T17:59:53.461Z,4.33
2018-07-13T18:02:24.646Z,4.40
2018-07-13T18:04:51.934Z,4.03
2018-07-13T18:07:18.962Z,4.17
2018-07-13T18:09:48.481Z,4.53
2018-07-13T18:12:20.846Z,4.03
2018-07-13T18:14:56.371Z,4.30
2018-07-13T18:17:28.878Z,4.57
2018-07-13T18:20:03.178Z,4.73
2018-07-13T18:22:31.747Z,4.97
2018-07-13T18:25:02.254Z,5.27
2018-07-13T18:27:31.114Z,5.07
2018-07-13T18:29:58.023Z,4.30
2018-07-13T18:32:25.184Z,5.20
2018-07-13T18:34:52.104Z,4.17
2018-07-13T18:37:19.022Z,4.87
2018-07-13T18:39:56.491Z,4.27
2018-07-13T18:42:29.642Z,5.10
2018-07-13T18:45:01.048Z,5.10
2018-07-13T18:47:28.669Z,4.97
2018-07-13T18:49:59.283Z,5.00
2018-07-13T18:52:30.971Z,4.43
2018-07-13T18:54:58.534Z,5.90
2018-07-13T18:57:25.430Z,4.83
2018-07-13T18:59:52.380Z,5.50
2018-07-13T19:02:19.296Z,5.80
2018-07-13T19:04:46.178Z,6.40
2018-07-13T19:07:13.198Z,11.87
2018-07-13T19:09:40.064Z,22.67
2018-07-13T19:12:07.046Z,28.47
2018-07-13T19:14:33.913Z,14.67
2018-07-13T19:17:00.841Z,8.57
2018-07-13T19:19:27.704Z,7.03
2018-07-13T19:21:54.643Z,6.60
2018-07-13T19:24:21.508Z,5.80
2018-07-13T19:26:48.440Z,5.87
2018-07-13T19:29:15.356Z,6.50
2018-07-13T19:31:42.293Z,5.57
2018-07-13T19:34:09.197Z,5.53
2018-07-13T19:36:36.122Z,5.83
2018-07-13T19:39:03.130Z,5.40
2018-07-13T19:41:30.108Z,5.77
2018-07-13T19:43:56.957Z,6.53
2018-07-13T19:46:23.877Z,5.50
2018-07-13T19:48:50.792Z,6.20
2018-07-13T19:51:17.750Z,5.80
2018-07-13T19:53:44.700Z,6.37
2018-07-13T19:56:11.679Z,7.73
2018-07-13T19:58:38.528Z,6.40
2018-07-13T20:01:05.967Z,6.10
2018-07-13T20:03:32.966Z,5.90
2018-07-13T20:05:59.984Z,6.57
2018-07-13T20:08:26.904Z,6.30
2018-07-13T20:10:53.825Z,7.10
2018-07-13T20:13:20.717Z,6.80
2018-07-13T20:15:47.621Z,6.30
2018-07-13T20:18:14.585Z,6.57
2018-07-13T20:20:41.449Z,6.63
2018-07-13T20:23:08.453Z,6.90
2018-07-13T20:25:35.381Z,6.20
2018-07-13T20:28:02.310Z,6.40
2018-07-13T20:30:29.259Z,6.20
2018-07-13T20:32:56.185Z,6.10
2018-07-13T20:35:23.064Z,7.57
2018-07-13T20:37:49.992Z,7.83
2018-07-13T20:40:16.906Z,6.70
2018-07-13T20:42:43.882Z,6.83
2018-07-13T20:45:10.850Z,7.20
2018-07-13T20:47:37.799Z,7.50
2018-07-13T20:50:04.971Z,7.80
2018-07-13T20:52:32.018Z,7.00
2018-07-13T20:54:58.933Z,7.33
2018-07-13T20:57:25.852Z,7.07
2018-07-13T20:59:52.721Z,6.57
2018-07-13T21:02:19.630Z,7.70
2018-07-13T21:04:46.581Z,7.53
2018-07-13T21:07:13.565Z,8.70
2018-07-13T21:09:40.437Z,8.17
2018-07-13T21:12:07.388Z,6.60
2018-07-13T21:14:34.239Z,7.27
2018-07-13T21:17:01.194Z,8.33
2018-07-13T21:19:28.118Z,7.00
2018-07-13T21:21:55.253Z,7.30
2018-07-13T21:24:22.193Z,7.33
2018-07-13T21:27:02.161Z,7.60
2018-07-13T21:29:44.145Z,7.40
2018-07-13T21:32:26.592Z,7.30
2018-07-13T21:34:59.488Z,6.80
2018-07-13T21:37:37.711Z,6.80
2018-07-13T21:40:17.281Z,8.17
2018-07-13T21:42:55.132Z,7.97
2018-07-13T21:45:23.398Z,7.03
2018-07-13T21:47:50.262Z,6.90
2018-07-13T21:50:27.925Z,7.83
2018-07-13T21:53:08.786Z,7.37
2018-07-13T21:55:49.549Z,6.90
2018-07-13T21:58:31.287Z,7.60
2018-07-13T22:00:59.090Z,7.00
2018-07-13T22:03:26.001Z,7.80
2018-07-13T22:08:51.283Z,7.90
2018-07-13T22:11:19.270Z,7.10
2018-07-13T22:13:46.200Z,7.43
2018-07-13T22:16:24.829Z,6.83
2018-07-13T22:19:05.097Z,7.70
2018-07-13T22:21:32.749Z,8.57
2018-07-13T22:24:00.820Z,16.83
2018-07-13T22:26:41.711Z,9.77
2018-07-13T22:29:24.421Z,11.20
2018-07-13T22:31:52.191Z,8.70
2018-07-13T22:34:22.571Z,8.70
2018-07-13T22:36:49.794Z,8.47
2018-07-13T22:39:31.332Z,8.07
2018-07-13T22:41:59.309Z,7.73
2018-07-13T22:44:27.415Z,8.13
2018-07-13T22:47:08.699Z,7.97
2018-07-13T22:49:36.429Z,7.20
2018-07-13T22:52:17.058Z,8.00
2018-07-13T22:54:58.761Z,7.70
2018-07-13T22:57:39.392Z,7.27
2018-07-13T23:00:21.960Z,7.23
2018-07-13T23:03:02.571Z,7.83
2018-07-13T23:05:43.869Z,8.73
2018-07-13T23:08:24.568Z,7.57
2018-07-13T23:11:07.175Z,8.20
2018-07-13T23:13:48.782Z,8.43
2018-07-13T23:16:30.363Z,7.63
2018-07-13T23:18:58.234Z,7.43
2018-07-13T23:21:25.072Z,7.83
2018-07-13T23:23:51.994Z,7.50
2018-07-13T23:26:18.908Z,6.93
2018-07-13T23:28:45.834Z,8.27
2018-07-13T23:31:12.757Z,7.20
2018-07-13T23:33:39.621Z,7.87
2018-07-13T23:36:06.703Z,8.20
2018-07-13T23:38:33.572Z,7.17
2018-07-13T23:41:00.506Z,7.33
2018-07-13T23:43:27.451Z,9.00
2018-07-13T23:45:54.403Z,7.50
2018-07-13T23:48:22.501Z,7.43
2018-07-13T23:50:49.566Z,7.80
2018-07-13T23:53:16.461Z,7.37
2018-07-13T23:55:43.392Z,7.80
2018-07-13T23:58:10.270Z,7.70
